createdAt,value
2023-07-06T00:01:46.748Z,19.52
2023-07-06T00:04:15.190Z,19.50
2023-07-06T00:06:43.192Z,19.64
2023-07-06T00:09:11.147Z,19.47
2023-07-06T00:11:39.761Z,19.50
2023-07-06T00:14:09.965Z,20.11
2023-07-06T00:16:42.264Z,20.18
2023-07-06T00:19:10.240Z,20.26
2023-07-06T00:21:37.854Z,20.16
2023-07-06T00:24:06.660Z,19.82
2023-07-06T00:26:34.242Z,19.78
2023-07-06T00:29:01.909Z,20.11
2023-07-06T00:31:51.996Z,20.29
2023-07-06T00:34:20.512Z,20.32
2023-07-06T00:36:49.066Z,20.39
2023-07-06T00:39:16.782Z,20.20
2023-07-06T00:41:45.278Z,19.45
2023-07-06T00:44:40.199Z,19.23
2023-07-06T00:47:10.126Z,18.41
2023-07-06T00:49:37.797Z,17.99
2023-07-06T00:52:05.806Z,18.80
2023-07-06T00:54:36.932Z,19.46
2023-07-06T00:57:04.823Z,19.82
2023-07-06T00:59:34.180Z,19.69
2023-07-06T01:02:01.908Z,20.06
2023-07-06T01:04:32.054Z,20.07
2023-07-06T01:07:00.190Z,20.30
2023-07-06T01:09:29.048Z,20.28
2023-07-06T01:11:57.048Z,20.53
2023-07-06T01:14:28.011Z,20.67
2023-07-06T01:17:00.354Z,20.40
2023-07-06T01:19:42.495Z,19.94
2023-07-06T01:22:23.747Z,19.73
2023-07-06T01:25:01.415Z,19.65
2023-07-06T01:27:34.480Z,19.21
2023-07-06T01:30:15.859Z,19.46
2023-07-06T01:32:49.181Z,19.71
2023-07-06T01:35:19.886Z,19.98
2023-07-06T01:37:47.735Z,19.63
2023-07-06T01:40:15.389Z,19.46
2023-07-06T01:42:43.893Z,19.49
2023-07-06T01:45:13.668Z,19.31
2023-07-06T01:47:45.889Z,19.35
2023-07-06T01:50:15.934Z,19.58
2023-07-06T01:52:59.437Z,19.27
2023-07-06T01:55:29.018Z,19.06
2023-07-06T01:58:05.252Z,18.86
2023-07-06T02:00:33.643Z,18.55
2023-07-06T02:03:04.243Z,18.38
2023-07-06T02:05:34.050Z,18.37
2023-07-06T02:08:02.119Z,18.65
2023-07-06T02:10:31.329Z,18.46
2023-07-06T02:12:59.087Z,18.17
2023-07-06T02:15:28.303Z,18.33
2023-07-06T02:17:57.774Z,18.41
2023-07-06T02:20:25.796Z,18.39
2023-07-06T02:22:54.686Z,18.17
2023-07-06T02:25:22.928Z,17.88
2023-07-06T02:27:50.709Z,18.32
2023-07-06T02:30:18.485Z,18.56
2023-07-06T02:32:47.278Z,18.90
2023-07-06T02:35:15.019Z,18.99
2023-07-06T02:37:43.246Z,18.97
2023-07-06T02:40:13.185Z,18.01
2023-07-06T02:42:41.601Z,18.68
2023-07-06T02:45:10.580Z,18.86
2023-07-06T02:47:38.582Z,19.07
2023-07-06T02:50:08.216Z,19.18
2023-07-06T02:52:35.905Z,19.47
2023-07-06T02:55:04.324Z,19.07
2023-07-06T02:57:33.815Z,19.11
2023-07-06T03:00:02.056Z,18.75
2023-07-06T03:02:30.564Z,18.19
2023-07-06T03:04:58.342Z,18.03
2023-07-06T03:07:26.581Z,17.97
2023-07-06T03:09:54.585Z,18.10
2023-07-06T03:12:25.139Z,18.18
2023-07-06T03:14:54.109Z,18.23
2023-07-06T03:17:21.869Z,18.34
2023-07-06T03:19:49.475Z,18.60
2023-07-06T03:22:18.463Z,18.60
2023-07-06T03:24:46.311Z,18.62
2023-07-06T03:27:13.990Z,18.54
2023-07-06T03:29:41.998Z,18.62
2023-07-06T03:32:12.156Z,18.10
2023-07-06T03:34:39.803Z,18.01
2023-07-06T03:37:07.563Z,18.29
2023-07-06T03:39:35.178Z,18.39
2023-07-06T03:42:03.570Z,18.61
2023-07-06T03:44:31.376Z,18.54
2023-07-06T03:46:59.473Z,18.43
2023-07-06T03:49:28.482Z,18.40
2023-07-06T03:51:57.381Z,18.33
2023-07-06T03:54:25.063Z,17.86
2023-07-06T03:56:54.578Z,18.16
2023-07-06T03:59:22.854Z,18.31
2023-07-06T04:01:51.702Z,18.34
2023-07-06T04:04:20.310Z,18.23
2023-07-06T04:06:49.416Z,18.31
2023-07-06T04:09:17.060Z,18.41
2023-07-06T04:11:44.761Z,18.43
2023-07-06T04:14:14.447Z,18.08
2023-07-06T04:16:42.354Z,18.09
2023-07-06T04:19:11.772Z,18.51
2023-07-06T04:21:39.371Z,18.46
2023-07-06T04:24:08.940Z,18.57
2023-07-06T04:26:36.726Z,18.52
2023-07-06T04:29:10.916Z,18.34
2023-07-06T04:31:38.759Z,18.43
2023-07-06T04:34:06.428Z,18.34
2023-07-06T04:36:34.153Z,17.47
2023-07-06T04:39:08.471Z,16.70
2023-07-06T04:41:39.235Z,16.93
2023-07-06T04:44:07.380Z,17.05
2023-07-06T04:46:35.084Z,17.16
2023-07-06T04:49:03.845Z,17.72
2023-07-06T04:51:31.489Z,18.24
2023-07-06T04:53:59.942Z,18.13
2023-07-06T04:56:28.015Z,17.61
2023-07-06T04:58:57.647Z,18.03
2023-07-06T05:01:27.865Z,18.31
2023-07-06T05:03:55.785Z,18.44
2023-07-06T05:06:25.225Z,18.02
2023-07-06T05:08:53.867Z,18.26
2023-07-06T05:11:21.611Z,18.65
2023-07-06T05:13:49.485Z,18.20
2023-07-06T05:16:18.505Z,18.05
2023-07-06T05:18:46.109Z,18.45
2023-07-06T05:21:16.082Z,18.73
2023-07-06T05:23:43.746Z,18.48
2023-07-06T05:26:12.228Z,18.89
2023-07-06T05:28:39.844Z,19.12
2023-07-06T05:31:07.615Z,18.93
2023-07-06T05:33:36.658Z,19.18
2023-07-06T05:36:04.503Z,19.06
2023-07-06T05:38:32.157Z,18.79
2023-07-06T05:41:03.364Z,19.10
2023-07-06T05:43:31.302Z,19.23
2023-07-06T05:45:59.223Z,19.29
2023-07-06T05:48:26.986Z,19.35
2023-07-06T05:50:56.028Z,19.30
2023-07-06T05:53:23.748Z,19.19
2023-07-06T05:55:51.505Z,19.12
2023-07-06T05:58:19.236Z,19.48
2023-07-06T06:00:46.884Z,19.55
2023-07-06T06:03:14.575Z,19.48
2023-07-06T06:05:43.607Z,19.06
2023-07-06T06:08:17.488Z,19.45
2023-07-06T06:10:45.155Z,19.30
2023-07-06T06:13:12.866Z,19.48
2023-07-06T06:15:40.448Z,19.15
2023-07-06T06:18:08.170Z,19.37
2023-07-06T06:20:37.933Z,19.02
2023-07-06T06:23:07.354Z,18.99
2023-07-06T06:25:38.076Z,18.94
2023-07-06T06:28:05.831Z,19.07
2023-07-06T06:30:35.963Z,19.02
2023-07-06T06:33:04.105Z,20.05
2023-07-06T06:35:33.187Z,19.98
2023-07-06T06:38:04.656Z,20.48
2023-07-06T06:40:33.060Z,19.68
2023-07-06T06:43:02.352Z,20.17
2023-07-06T06:45:30.060Z,20.67
2023-07-06T06:47:57.737Z,21.00
2023-07-06T06:50:25.381Z,20.35
2023-07-06T06:52:53.042Z,20.96
2023-07-06T06:55:20.892Z,21.49
2023-07-06T06:57:48.972Z,20.61
2023-07-06T07:00:18.481Z,20.46
2023-07-06T07:02:48.669Z,21.46
2023-07-06T07:05:17.368Z,21.40
2023-07-06T07:07:45.176Z,21.94
2023-07-06T07:10:12.964Z,22.40
2023-07-06T07:12:41.465Z,22.53
2023-07-06T07:15:10.446Z,22.76
2023-07-06T07:17:39.528Z,22.16
2023-07-06T07:20:08.064Z,21.14
2023-07-06T07:22:36.528Z,20.76
2023-07-06T07:25:04.368Z,20.54
2023-07-06T07:27:32.182Z,20.64
2023-07-06T07:29:59.967Z,21.49
2023-07-06T07:32:31.207Z,22.20
2023-07-06T07:35:00.418Z,23.32
2023-07-06T07:37:28.124Z,23.25
2023-07-06T07:39:56.942Z,23.42
2023-07-06T07:42:26.899Z,24.55
2023-07-06T07:44:58.730Z,25.10
2023-07-06T07:47:28.618Z,25.32
2023-07-06T07:49:56.570Z,24.87
2023-07-06T07:52:25.581Z,25.38
2023-07-06T07:54:54.832Z,25.15
2023-07-06T07:57:23.155Z,24.44
2023-07-06T07:59:50.872Z,24.15
2023-07-06T08:02:19.081Z,25.52
2023-07-06T08:04:49.166Z,24.72
2023-07-06T08:07:16.980Z,25.05
2023-07-06T08:09:45.952Z,24.26
2023-07-06T08:12:13.680Z,24.98
2023-07-06T08:14:43.317Z,25.51
2023-07-06T08:17:12.171Z,25.68
2023-07-06T08:20:06.986Z,26.68
2023-07-06T08:22:27.522Z,27.33
2023-07-06T08:24:56.529Z,26.89
2023-07-06T08:27:24.805Z,25.98
2023-07-06T08:29:53.222Z,25.98
2023-07-06T08:32:23.386Z,27.08
2023-07-06T08:34:51.404Z,27.26
2023-07-06T08:37:19.918Z,25.72
2023-07-06T08:39:48.074Z,23.55
2023-07-06T08:42:20.138Z,25.58
2023-07-06T08:44:51.908Z,27.58
2023-07-06T08:47:20.015Z,27.87
2023-07-06T08:49:47.899Z,27.24
2023-07-06T08:52:17.968Z,27.16
2023-07-06T08:54:50.219Z,26.97
2023-07-06T08:57:21.418Z,27.57
2023-07-06T08:59:50.626Z,28.63
2023-07-06T09:02:19.345Z,27.84
2023-07-06T09:04:48.379Z,28.46
2023-07-06T09:07:17.118Z,28.98
2023-07-06T09:09:45.413Z,28.07
2023-07-06T09:12:15.286Z,26.64
2023-07-06T09:14:45.147Z,24.94
2023-07-06T09:17:18.002Z,25.56
2023-07-06T09:19:45.766Z,22.96
2023-07-06T09:22:14.546Z,25.03
2023-07-06T09:24:45.970Z,23.87
2023-07-06T09:27:18.981Z,22.47
2023-07-06T09:29:57.552Z,22.69
2023-07-06T09:32:25.267Z,25.15
2023-07-06T09:34:55.770Z,27.42
2023-07-06T09:37:24.502Z,26.37
2023-07-06T09:39:59.662Z,24.89
2023-07-06T09:42:29.395Z,23.94
2023-07-06T09:44:59.572Z,24.00
2023-07-06T09:47:28.114Z,26.04
2023-07-06T09:49:57.718Z,26.54
2023-07-06T09:52:26.484Z,25.18
2023-07-06T09:54:58.064Z,28.27
2023-07-06T09:57:26.675Z,28.72
2023-07-06T09:59:55.236Z,29.83
2023-07-06T10:02:30.510Z,29.70
2023-07-06T10:05:02.240Z,28.74
2023-07-06T10:07:36.632Z,28.84
2023-07-06T10:10:10.978Z,28.31
2023-07-06T10:12:40.867Z,27.44
2023-07-06T10:15:16.550Z,27.20
2023-07-06T10:17:50.835Z,28.10
2023-07-06T10:20:26.911Z,29.17
2023-07-06T10:23:11.094Z,29.54
2023-07-06T10:25:45.987Z,30.31
2023-07-06T10:28:15.830Z,29.06
2023-07-06T10:30:46.864Z,27.35
2023-07-06T10:33:18.394Z,24.93
2023-07-06T10:35:49.426Z,23.58
2023-07-06T10:38:17.916Z,24.53
2023-07-06T10:40:51.154Z,24.19
2023-07-06T10:43:24.161Z,25.01
2023-07-06T10:45:52.836Z,25.04
2023-07-06T10:48:33.434Z,25.21
2023-07-06T10:51:21.656Z,27.19
2023-07-06T10:53:51.403Z,25.62
2023-07-06T10:56:21.361Z,26.73
2023-07-06T10:58:56.212Z,24.63
2023-07-06T11:01:30.000Z,24.85
2023-07-06T11:04:04.871Z,27.46
2023-07-06T11:06:51.365Z,25.83
2023-07-06T11:09:19.045Z,25.82
2023-07-06T11:12:03.006Z,25.70
2023-07-06T11:14:39.585Z,24.86
2023-07-06T11:17:20.096Z,25.04
2023-07-06T11:19:51.476Z,25.45
2023-07-06T11:22:21.128Z,27.34
2023-07-06T11:24:50.145Z,27.27
2023-07-06T11:27:25.626Z,27.14
2023-07-06T11:29:55.598Z,26.37
2023-07-06T11:32:29.070Z,26.67
2023-07-06T11:35:06.013Z,29.78
2023-07-06T11:37:57.250Z,32.76
2023-07-06T11:40:39.821Z,34.20
2023-07-06T11:43:16.136Z,31.85
2023-07-06T11:45:47.913Z,30.52
2023-07-06T11:48:24.471Z,30.71
2023-07-06T11:50:55.408Z,28.50
2023-07-06T11:53:43.751Z,26.15
2023-07-06T11:56:23.466Z,26.02
2023-07-06T11:59:02.271Z,26.02
2023-07-06T12:01:43.586Z,30.46
2023-07-06T12:04:16.400Z,29.75
2023-07-06T12:06:47.036Z,32.26
2023-07-06T12:09:18.758Z,34.37
2023-07-06T12:11:46.959Z,32.79
2023-07-06T12:14:20.099Z,34.54
2023-07-06T12:16:47.922Z,36.29
2023-07-06T12:19:18.732Z,35.24
2023-07-06T12:21:51.616Z,35.41
2023-07-06T12:24:21.395Z,37.21
2023-07-06T12:26:50.166Z,35.28
2023-07-06T12:29:18.592Z,36.15
2023-07-06T12:31:46.813Z,36.16
2023-07-06T12:34:17.880Z,35.84
2023-07-06T12:36:50.941Z,31.65
2023-07-06T12:39:20.754Z,28.97
2023-07-06T12:41:49.122Z,31.02
2023-07-06T12:44:18.898Z,30.90
2023-07-06T12:46:52.794Z,30.43
2023-07-06T12:49:24.013Z,32.99
2023-07-06T12:51:55.740Z,34.88
2023-07-06T12:54:25.488Z,35.53
2023-07-06T12:57:01.156Z,32.02
2023-07-06T12:59:33.889Z,33.30
2023-07-06T13:02:08.705Z,32.32
2023-07-06T13:04:43.814Z,29.84
2023-07-06T13:07:13.204Z,30.49
2023-07-06T13:09:43.400Z,35.31
2023-07-06T13:12:19.618Z,36.94
2023-07-06T13:14:48.024Z,38.20
2023-07-06T13:17:17.269Z,34.93
2023-07-06T13:19:45.409Z,35.72
2023-07-06T13:22:15.091Z,31.86
2023-07-06T13:24:42.702Z,31.67
2023-07-06T13:27:14.050Z,29.92
2023-07-06T13:29:41.655Z,30.96
2023-07-06T13:32:12.735Z,33.17
2023-07-06T13:34:44.056Z,35.14
2023-07-06T13:37:22.549Z,36.81
2023-07-06T13:39:50.406Z,33.86
2023-07-06T13:42:18.167Z,30.51
2023-07-06T13:44:45.788Z,28.71
2023-07-06T13:47:13.926Z,28.40
2023-07-06T13:49:43.445Z,28.74
2023-07-06T13:52:13.351Z,28.84
2023-07-06T13:54:42.866Z,28.40
2023-07-06T13:57:11.406Z,31.46
2023-07-06T13:59:39.589Z,32.56
2023-07-06T14:02:07.681Z,34.08
2023-07-06T14:04:35.384Z,36.40
2023-07-06T14:07:03.104Z,34.44
2023-07-06T14:09:31.641Z,30.79
2023-07-06T14:12:00.959Z,31.32
2023-07-06T14:14:28.591Z,31.39
2023-07-06T14:16:56.365Z,30.86
2023-07-06T14:19:24.096Z,30.06
2023-07-06T14:21:51.739Z,29.86
2023-07-06T14:24:21.391Z,30.42
2023-07-06T14:26:49.177Z,31.35
2023-07-06T14:29:18.284Z,31.05
2023-07-06T14:31:49.533Z,30.80
2023-07-06T14:34:23.365Z,30.67
2023-07-06T14:36:51.239Z,32.89
2023-07-06T14:39:19.859Z,33.48
2023-07-06T14:41:47.474Z,30.89
2023-07-06T14:44:15.072Z,33.10
2023-07-06T14:46:44.112Z,31.26
2023-07-06T14:49:11.781Z,29.95
2023-07-06T14:51:39.375Z,31.37
2023-07-06T14:54:06.905Z,32.44
2023-07-06T14:56:34.570Z,32.73
2023-07-06T14:59:02.600Z,29.81
2023-07-06T15:01:30.229Z,31.91
2023-07-06T15:03:59.274Z,32.41
2023-07-06T15:06:26.826Z,33.78
2023-07-06T15:08:55.129Z,33.40
2023-07-06T15:11:23.089Z,34.05
2023-07-06T15:13:50.736Z,33.62
2023-07-06T15:16:18.419Z,33.04
2023-07-06T15:18:46.131Z,33.16
2023-07-06T15:21:16.739Z,33.89
2023-07-06T15:23:44.415Z,33.44
2023-07-06T15:26:12.619Z,33.49
2023-07-06T15:28:40.529Z,34.64
2023-07-06T15:31:08.940Z,33.77
2023-07-06T15:33:36.719Z,34.15
2023-07-06T15:36:04.399Z,35.14
2023-07-06T15:38:33.399Z,34.07
2023-07-06T15:41:01.135Z,33.86
2023-07-06T15:43:28.704Z,34.25
2023-07-06T15:45:57.122Z,33.86
2023-07-06T15:48:25.177Z,33.50
2023-07-06T15:50:53.557Z,33.83
2023-07-06T15:53:22.063Z,34.35
2023-07-06T15:55:57.456Z,34.94
2023-07-06T15:58:25.493Z,35.02
2023-07-06T16:00:53.797Z,34.79
2023-07-06T16:03:21.563Z,34.50
2023-07-06T16:05:49.533Z,34.71
2023-07-06T16:08:18.589Z,35.23
2023-07-06T16:10:48.056Z,35.66
2023-07-06T16:13:17.718Z,35.20
2023-07-06T16:15:45.400Z,35.13
2023-07-06T16:18:13.240Z,33.09
2023-07-06T16:20:43.626Z,34.42
2023-07-06T16:23:11.257Z,33.82
2023-07-06T16:25:38.835Z,33.47
2023-07-06T16:28:06.449Z,33.75
2023-07-06T16:30:35.843Z,34.30
2023-07-06T16:33:03.535Z,33.48
2023-07-06T16:35:32.230Z,34.32
2023-07-06T16:37:59.959Z,34.96
2023-07-06T16:40:27.590Z,34.02
2023-07-06T16:42:59.266Z,33.64
2023-07-06T16:45:26.887Z,33.47
2023-07-06T16:47:56.027Z,34.40
2023-07-06T16:50:23.701Z,35.19
2023-07-06T16:52:51.272Z,35.76
2023-07-06T16:55:18.963Z,35.16
2023-07-06T16:57:47.378Z,34.59
2023-07-06T17:00:15.418Z,34.58
2023-07-06T17:02:43.294Z,35.02
2023-07-06T17:05:12.329Z,34.83
2023-07-06T17:07:39.914Z,35.19
2023-07-06T17:10:08.402Z,34.75
2023-07-06T17:12:36.028Z,34.62
2023-07-06T17:15:04.133Z,35.77
2023-07-06T17:17:31.957Z,34.67
2023-07-06T17:19:59.575Z,34.44
2023-07-06T17:22:28.562Z,33.64
2023-07-06T17:24:56.133Z,33.96
2023-07-06T17:27:23.793Z,34.66
2023-07-06T17:29:51.390Z,34.31
2023-07-06T17:32:19.125Z,32.70
2023-07-06T17:34:46.727Z,31.12
2023-07-06T17:37:14.609Z,30.52
2023-07-06T17:39:43.808Z,30.02
2023-07-06T17:42:11.716Z,29.48
2023-07-06T17:44:39.351Z,29.36
2023-07-06T17:47:07.359Z,29.35
2023-07-06T17:49:35.288Z,29.08
2023-07-06T17:52:03.093Z,28.93
2023-07-06T17:54:30.744Z,28.80
2023-07-06T17:56:59.873Z,28.98
2023-07-06T17:59:30.085Z,28.76
2023-07-06T18:01:58.365Z,28.55
2023-07-06T18:04:26.523Z,28.53
2023-07-06T18:06:54.297Z,28.77
2023-07-06T18:09:21.975Z,28.62
2023-07-06T18:11:49.628Z,27.94
2023-07-06T18:14:21.422Z,28.23
2023-07-06T18:16:49.176Z,28.21
2023-07-06T18:19:16.848Z,27.87
2023-07-06T18:21:46.500Z,27.39
2023-07-06T18:24:14.679Z,27.34
2023-07-06T18:26:42.248Z,27.50
2023-07-06T18:29:09.874Z,27.66
2023-07-06T18:31:38.955Z,27.66
2023-07-06T18:34:06.609Z,27.34
2023-07-06T18:36:34.228Z,27.63
2023-07-06T18:39:01.890Z,27.45
2023-07-06T18:41:29.567Z,27.16
2023-07-06T18:43:57.110Z,26.82
2023-07-06T18:46:24.873Z,26.74
2023-07-06T18:48:53.862Z,26.33
2023-07-06T18:51:21.472Z,26.13
2023-07-06T18:53:49.644Z,26.07
2023-07-06T18:56:17.418Z,26.45
2023-07-06T18:58:45.277Z,26.48
2023-07-06T19:01:13.226Z,26.32
2023-07-06T19:03:41.265Z,26.15
2023-07-06T19:08:41.550Z,25.89
2023-07-06T19:11:09.202Z,26.19
2023-07-06T19:13:36.947Z,26.39
2023-07-06T19:16:04.963Z,26.60
2023-07-06T19:18:32.669Z,26.63
2023-07-06T19:21:00.695Z,26.35
2023-07-06T19:23:30.385Z,26.39
2023-07-06T19:25:59.786Z,25.99
2023-07-06T19:28:27.832Z,25.82
2023-07-06T19:30:58.350Z,25.87
2023-07-06T19:33:26.406Z,25.76
2023-07-06T19:35:54.023Z,25.83
2023-07-06T19:38:21.852Z,25.74
2023-07-06T19:40:54.236Z,25.10
2023-07-06T19:43:21.931Z,24.90
2023-07-06T19:45:50.238Z,25.13
2023-07-06T19:48:18.602Z,24.89
2023-07-06T19:50:46.245Z,24.84
2023-07-06T19:53:13.936Z,24.78
2023-07-06T19:55:41.590Z,25.02
2023-07-06T19:58:10.562Z,25.24
2023-07-06T20:00:38.975Z,25.04
2023-07-06T20:03:09.859Z,24.55
2023-07-06T20:05:39.313Z,24.79
2023-07-06T20:08:08.091Z,24.56
2023-07-06T20:10:36.615Z,24.80
2023-07-06T20:13:06.873Z,24.84
2023-07-06T20:15:35.851Z,24.89
2023-07-06T20:18:03.564Z,24.73
2023-07-06T20:20:31.289Z,24.38
2023-07-06T20:22:58.901Z,23.76
2023-07-06T20:25:26.588Z,24.09
2023-07-06T20:27:54.319Z,24.26
2023-07-06T20:30:22.039Z,24.29
2023-07-06T20:32:51.055Z,23.97
2023-07-06T20:35:18.878Z,23.92
2023-07-06T20:37:46.394Z,23.08
2023-07-06T20:40:14.037Z,23.17
2023-07-06T20:42:41.609Z,23.93
2023-07-06T20:45:12.489Z,24.29
2023-07-06T20:47:40.161Z,24.51
2023-07-06T20:50:09.700Z,24.54
2023-07-06T20:52:37.404Z,24.57
2023-07-06T20:55:05.344Z,24.60
2023-07-06T20:57:32.969Z,24.48
2023-07-06T21:00:00.645Z,23.83
2023-07-06T21:02:28.306Z,23.76
2023-07-06T21:04:56.039Z,23.94
2023-07-06T21:07:25.218Z,23.96
2023-07-06T21:09:53.213Z,23.99
2023-07-06T21:12:20.819Z,24.08
2023-07-06T21:14:48.394Z,24.00
2023-07-06T21:17:16.051Z,23.16
2023-07-06T21:19:43.655Z,22.31
2023-07-06T21:22:11.290Z,22.34
2023-07-06T21:24:40.302Z,22.32
2023-07-06T21:27:08.418Z,22.28
2023-07-06T21:29:36.035Z,21.71
2023-07-06T21:32:03.658Z,21.12
2023-07-06T21:34:31.236Z,20.87
2023-07-06T21:36:58.876Z,20.59
2023-07-06T21:39:26.450Z,20.60
2023-07-06T21:41:55.418Z,20.57
2023-07-06T21:44:23.126Z,20.79
2023-07-06T21:46:50.767Z,21.22
2023-07-06T21:49:18.383Z,20.95
2023-07-06T21:51:46.410Z,20.77
2023-07-06T21:54:14.098Z,20.65
2023-07-06T21:56:41.707Z,20.68
2023-07-06T21:59:10.786Z,20.73
2023-07-06T22:01:38.580Z,20.35
2023-07-06T22:04:06.469Z,20.33
2023-07-06T22:06:34.932Z,20.10
2023-07-06T22:09:04.692Z,20.27
2023-07-06T22:11:32.549Z,19.84
2023-07-06T22:14:00.348Z,19.97
2023-07-06T22:16:29.904Z,21.09
2023-07-06T22:18:57.718Z,21.51
2023-07-06T22:21:25.312Z,20.77
2023-07-06T22:23:52.954Z,20.81
2023-07-06T22:26:20.568Z,20.75
2023-07-06T22:28:48.200Z,20.74
2023-07-06T22:31:15.880Z,21.10
2023-07-06T22:33:44.942Z,21.22
2023-07-06T22:36:12.679Z,21.21
2023-07-06T22:38:41.485Z,20.76
2023-07-06T22:41:09.798Z,20.48
2023-07-06T22:43:37.825Z,20.81
2023-07-06T22:46:05.617Z,20.58
2023-07-06T22:48:33.299Z,20.09
2023-07-06T22:51:02.694Z,19.72
2023-07-06T22:53:31.100Z,20.40
2023-07-06T22:55:59.225Z,19.82
2023-07-06T22:58:26.841Z,20.14
2023-07-06T23:00:54.895Z,20.23
2023-07-06T23:03:23.026Z,20.11
2023-07-06T23:05:50.762Z,19.58
2023-07-06T23:08:19.707Z,20.09
2023-07-06T23:10:50.139Z,20.24
2023-07-06T23:13:17.789Z,19.50
2023-07-06T23:15:46.022Z,19.89
2023-07-06T23:18:13.776Z,19.91
2023-07-06T23:20:41.665Z,19.27
2023-07-06T23:23:09.302Z,19.06
2023-07-06T23:25:40.081Z,18.59
2023-07-06T23:28:09.178Z,18.54
2023-07-06T23:30:38.581Z,18.70
2023-07-06T23:33:09.912Z,19.61
2023-07-06T23:35:43.309Z,20.00
2023-07-06T23:38:13.668Z,20.00
2023-07-06T23:40:44.868Z,20.19
2023-07-06T23:43:12.777Z,20.25
2023-07-06T23:45:40.365Z,20.16
2023-07-06T23:48:08.587Z,20.37
2023-07-06T23:50:36.605Z,20.36
2023-07-06T23:53:04.430Z,20.30
2023-07-06T23:55:32.131Z,20.12
2023-07-06T23:58:01.375Z,20.11
